sensor_id;sensor_type;location;lat;lon;timestamp;temperature;humidity
64937;SHT30;51452;47.698;19.050;2024-03-02T00:01:58;11.23;73.22
64937;SHT30;51452;47.698;19.050;2024-03-02T00:04:23;11.16;73.29
64937;SHT30;51452;47.698;19.050;2024-03-02T00:06:52;11.20;73.24
64937;SHT30;51452;47.698;19.050;2024-03-02T00:09:21;11.12;73.43
64937;SHT30;51452;47.698;19.050;2024-03-02T00:11:46;11.17;72.98
64937;SHT30;51452;47.698;19.050;2024-03-02T00:14:15;11.10;72.63
64937;SHT30;51452;47.698;19.050;2024-03-02T00:16:41;11.06;72.81
64937;SHT30;51452;47.698;19.050;2024-03-02T00:19:06;10.93;72.95
64937;SHT30;51452;47.698;19.050;2024-03-02T00:21:33;10.89;72.89
64937;SHT30;51452;47.698;19.050;2024-03-02T00:23:59;10.69;74.01
64937;SHT30;51452;47.698;19.050;2024-03-02T00:26:29;10.61;75.25
64937;SHT30;51452;47.698;19.050;2024-03-02T00:28:55;10.51;75.66
64937;SHT30;51452;47.698;19.050;2024-03-02T00:31:22;10.46;76.00
64937;SHT30;51452;47.698;19.050;2024-03-02T00:33:48;10.49;75.67
64937;SHT30;51452;47.698;19.050;2024-03-02T00:36:15;10.56;75.45
64937;SHT30;51452;47.698;19.050;2024-03-02T00:38:52;10.68;74.74
64937;SHT30;51452;47.698;19.050;2024-03-02T00:41:22;10.61;75.34
64937;SHT30;51452;47.698;19.050;2024-03-02T00:43:58;10.76;74.79
64937;SHT30;51452;47.698;19.050;2024-03-02T00:46:24;10.75;74.46
64937;SHT30;51452;47.698;19.050;2024-03-02T00:48:57;10.77;74.07
64937;SHT30;51452;47.698;19.050;2024-03-02T00:51:24;10.86;74.71
64937;SHT30;51452;47.698;19.050;2024-03-02T00:53:54;10.68;74.63
64937;SHT30;51452;47.698;19.050;2024-03-02T00:56:22;10.72;74.48
64937;SHT30;51452;47.698;19.050;2024-03-02T00:58:47;10.59;74.92
64937;SHT30;51452;47.698;19.050;2024-03-02T01:01:13;10.69;74.71
64937;SHT30;51452;47.698;19.050;2024-03-02T01:03:39;10.73;74.57
64937;SHT30;51452;47.698;19.050;2024-03-02T01:06:05;10.56;74.79
64937;SHT30;51452;47.698;19.050;2024-03-02T01:08:33;10.55;74.88
64937;SHT30;51452;47.698;19.050;2024-03-02T01:10:58;10.55;74.84
64937;SHT30;51452;47.698;19.050;2024-03-02T01:13:24;10.69;74.74
64937;SHT30;51452;47.698;19.050;2024-03-02T01:15:50;10.51;75.03
64937;SHT30;51452;47.698;19.050;2024-03-02T01:18:15;10.61;74.78
64937;SHT30;51452;47.698;19.050;2024-03-02T01:20:41;10.66;74.61
64937;SHT30;51452;47.698;19.050;2024-03-02T01:23:06;10.72;74.70
64937;SHT30;51452;47.698;19.050;2024-03-02T01:25:32;10.64;74.80
64937;SHT30;51452;47.698;19.050;2024-03-02T01:27:57;10.52;75.18
64937;SHT30;51452;47.698;19.050;2024-03-02T01:30:22;10.34;75.99
64937;SHT30;51452;47.698;19.050;2024-03-02T01:32:48;10.25;76.10
64937;SHT30;51452;47.698;19.050;2024-03-02T01:35:13;10.30;75.97
64937;SHT30;51452;47.698;19.050;2024-03-02T01:37:40;10.21;76.36
64937;SHT30;51452;47.698;19.050;2024-03-02T01:40:06;10.28;76.06
64937;SHT30;51452;47.698;19.050;2024-03-02T01:42:38;10.44;75.91
64937;SHT30;51452;47.698;19.050;2024-03-02T01:45:05;10.49;75.45
64937;SHT30;51452;47.698;19.050;2024-03-02T01:47:31;10.52;75.38
64937;SHT30;51452;47.698;19.050;2024-03-02T01:49:58;10.56;75.43
64937;SHT30;51452;47.698;19.050;2024-03-02T01:52:23;10.54;75.32
64937;SHT30;51452;47.698;19.050;2024-03-02T01:54:49;10.51;75.40
64937;SHT30;51452;47.698;19.050;2024-03-02T01:57:15;10.66;75.23
64937;SHT30;51452;47.698;19.050;2024-03-02T01:59:40;10.61;74.65
64937;SHT30;51452;47.698;19.050;2024-03-02T02:02:06;10.68;74.43
64937;SHT30;51452;47.698;19.050;2024-03-02T02:04:32;10.72;74.91
64937;SHT30;51452;47.698;19.050;2024-03-02T02:06:58;10.73;74.34
64937;SHT30;51452;47.698;19.050;2024-03-02T02:09:24;10.82;74.85
64937;SHT30;51452;47.698;19.050;2024-03-02T02:11:50;10.79;74.73
64937;SHT30;51452;47.698;19.050;2024-03-02T02:14:16;10.71;74.44
64937;SHT30;51452;47.698;19.050;2024-03-02T02:16:41;10.68;74.40
64937;SHT30;51452;47.698;19.050;2024-03-02T02:19:07;10.66;74.35
64937;SHT30;51452;47.698;19.050;2024-03-02T02:21:33;10.72;74.13
64937;SHT30;51452;47.698;19.050;2024-03-02T02:23:58;10.66;74.24
64937;SHT30;51452;47.698;19.050;2024-03-02T02:26:24;10.76;74.27
64937;SHT30;51452;47.698;19.050;2024-03-02T02:28:50;10.68;73.95
64937;SHT30;51452;47.698;19.050;2024-03-02T02:31:15;10.65;74.21
64937;SHT30;51452;47.698;19.050;2024-03-02T02:33:42;10.66;74.34
64937;SHT30;51452;47.698;19.050;2024-03-02T02:36:07;10.64;74.14
64937;SHT30;51452;47.698;19.050;2024-03-02T02:38:34;10.68;73.98
64937;SHT30;51452;47.698;19.050;2024-03-02T02:41:01;10.71;74.29
64937;SHT30;51452;47.698;19.050;2024-03-02T02:43:27;10.73;74.31
64937;SHT30;51452;47.698;19.050;2024-03-02T02:45:52;10.77;74.42
64937;SHT30;51452;47.698;19.050;2024-03-02T02:48:18;10.62;74.39
64937;SHT30;51452;47.698;19.050;2024-03-02T02:50:43;10.69;74.90
64937;SHT30;51452;47.698;19.050;2024-03-02T02:53:09;10.79;74.40
64937;SHT30;51452;47.698;19.050;2024-03-02T02:55:35;10.82;74.08
64937;SHT30;51452;47.698;19.050;2024-03-02T02:58:05;10.73;74.44
64937;SHT30;51452;47.698;19.050;2024-03-02T03:00:31;10.82;74.14
64937;SHT30;51452;47.698;19.050;2024-03-02T03:02:56;10.82;74.11
64937;SHT30;51452;47.698;19.050;2024-03-02T03:05:22;10.65;74.36
64937;SHT30;51452;47.698;19.050;2024-03-02T03:07:47;10.68;74.24
64937;SHT30;51452;47.698;19.050;2024-03-02T03:10:15;10.72;74.47
64937;SHT30;51452;47.698;19.050;2024-03-02T03:12:42;10.77;73.69
64937;SHT30;51452;47.698;19.050;2024-03-02T03:15:10;10.76;73.43
64937;SHT30;51452;47.698;19.050;2024-03-02T03:17:36;10.75;73.07
64937;SHT30;51452;47.698;19.050;2024-03-02T03:20:03;10.80;72.74
64937;SHT30;51452;47.698;19.050;2024-03-02T03:22:29;10.66;73.10
64937;SHT30;51452;47.698;19.050;2024-03-02T03:24:55;10.66;73.31
64937;SHT30;51452;47.698;19.050;2024-03-02T03:27:20;10.66;73.38
64937;SHT30;51452;47.698;19.050;2024-03-02T03:29:46;10.68;73.44
64937;SHT30;51452;47.698;19.050;2024-03-02T03:32:11;10.62;73.21
64937;SHT30;51452;47.698;19.050;2024-03-02T03:34:37;10.66;72.99
64937;SHT30;51452;47.698;19.050;2024-03-02T03:37:03;10.65;73.15
64937;SHT30;51452;47.698;19.050;2024-03-02T03:39:28;10.62;73.05
64937;SHT30;51452;47.698;19.050;2024-03-02T03:41:54;10.62;73.51
64937;SHT30;51452;47.698;19.050;2024-03-02T03:44:19;10.69;73.12
64937;SHT30;51452;47.698;19.050;2024-03-02T03:46:45;10.72;73.35
64937;SHT30;51452;47.698;19.050;2024-03-02T03:49:10;10.68;73.33
64937;SHT30;51452;47.698;19.050;2024-03-02T03:51:38;10.66;73.48
64937;SHT30;51452;47.698;19.050;2024-03-02T03:54:03;10.69;73.53
64937;SHT30;51452;47.698;19.050;2024-03-02T03:56:29;10.68;73.48
64937;SHT30;51452;47.698;19.050;2024-03-02T03:58:54;10.75;73.58
64937;SHT30;51452;47.698;19.050;2024-03-02T04:01:20;10.79;73.31
64937;SHT30;51452;47.698;19.050;2024-03-02T04:03:47;10.75;74.04
64937;SHT30;51452;47.698;19.050;2024-03-02T04:06:12;10.79;73.97
64937;SHT30;51452;47.698;19.050;2024-03-02T04:08:38;10.83;74.74
64937;SHT30;51452;47.698;19.050;2024-03-02T04:11:04;10.79;75.38
64937;SHT30;51452;47.698;19.050;2024-03-02T04:13:30;10.76;75.28
64937;SHT30;51452;47.698;19.050;2024-03-02T04:15:55;10.73;75.46
64937;SHT30;51452;47.698;19.050;2024-03-02T04:18:20;10.75;75.48
64937;SHT30;51452;47.698;19.050;2024-03-02T04:20:46;10.62;75.74
64937;SHT30;51452;47.698;19.050;2024-03-02T04:23:11;10.55;76.20
64937;SHT30;51452;47.698;19.050;2024-03-02T04:25:37;10.45;76.57
64937;SHT30;51452;47.698;19.050;2024-03-02T04:28:02;10.52;76.37
64937;SHT30;51452;47.698;19.050;2024-03-02T04:30:27;10.46;76.87
64937;SHT30;51452;47.698;19.050;2024-03-02T04:32:53;10.30;77.30
64937;SHT30;51452;47.698;19.050;2024-03-02T04:35:18;10.37;76.98
64937;SHT30;51452;47.698;19.050;2024-03-02T04:37:44;10.40;77.42
64937;SHT30;51452;47.698;19.050;2024-03-02T04:40:09;10.45;77.27
64937;SHT30;51452;47.698;19.050;2024-03-02T04:42:35;10.45;77.43
64937;SHT30;51452;47.698;19.050;2024-03-02T04:45:01;10.51;77.44
64937;SHT30;51452;47.698;19.050;2024-03-02T04:47:27;10.44;77.47
64937;SHT30;51452;47.698;19.050;2024-03-02T04:49:52;10.45;77.29
64937;SHT30;51452;47.698;19.050;2024-03-02T04:52:17;10.51;77.31
64937;SHT30;51452;47.698;19.050;2024-03-02T04:54:43;10.45;77.63
64937;SHT30;51452;47.698;19.050;2024-03-02T04:57:27;10.49;77.40
64937;SHT30;51452;47.698;19.050;2024-03-02T04:59:53;10.46;77.69
64937;SHT30;51452;47.698;19.050;2024-03-02T05:02:18;10.49;77.64
64937;SHT30;51452;47.698;19.050;2024-03-02T05:04:43;10.45;77.36
64937;SHT30;51452;47.698;19.050;2024-03-02T05:07:09;10.52;76.95
64937;SHT30;51452;47.698;19.050;2024-03-02T05:09:35;10.59;77.28
64937;SHT30;51452;47.698;19.050;2024-03-02T05:12:00;10.59;77.28
64937;SHT30;51452;47.698;19.050;2024-03-02T05:14:48;10.62;77.35
64937;SHT30;51452;47.698;19.050;2024-03-02T05:17:14;10.62;77.16
64937;SHT30;51452;47.698;19.050;2024-03-02T05:19:39;10.59;77.09
64937;SHT30;51452;47.698;19.050;2024-03-02T05:22:04;10.61;77.88
64937;SHT30;51452;47.698;19.050;2024-03-02T05:24:30;10.49;77.98
64937;SHT30;51452;47.698;19.050;2024-03-02T05:26:56;10.54;77.26
64937;SHT30;51452;47.698;19.050;2024-03-02T05:29:21;10.56;77.16
64937;SHT30;51452;47.698;19.050;2024-03-02T05:31:47;10.58;77.46
64937;SHT30;51452;47.698;19.050;2024-03-02T05:34:13;10.52;77.48
64937;SHT30;51452;47.698;19.050;2024-03-02T05:36:38;10.52;78.17
64937;SHT30;51452;47.698;19.050;2024-03-02T05:39:04;10.46;78.53
64937;SHT30;51452;47.698;19.050;2024-03-02T05:41:31;10.52;78.47
64937;SHT30;51452;47.698;19.050;2024-03-02T05:43:57;10.56;77.98
64937;SHT30;51452;47.698;19.050;2024-03-02T05:46:22;10.51;77.77
64937;SHT30;51452;47.698;19.050;2024-03-02T05:48:48;10.20;78.60
64937;SHT30;51452;47.698;19.050;2024-03-02T05:51:13;10.34;78.82
64937;SHT30;51452;47.698;19.050;2024-03-02T05:53:39;10.48;78.39
64937;SHT30;51452;47.698;19.050;2024-03-02T05:56:05;10.54;78.35
64937;SHT30;51452;47.698;19.050;2024-03-02T05:58:31;10.54;78.10
64937;SHT30;51452;47.698;19.050;2024-03-02T06:00:59;10.18;79.06
64937;SHT30;51452;47.698;19.050;2024-03-02T06:03:24;10.13;79.15
64937;SHT30;51452;47.698;19.050;2024-03-02T06:05:50;10.25;78.61
64937;SHT30;51452;47.698;19.050;2024-03-02T06:08:16;10.40;78.68
64937;SHT30;51452;47.698;19.050;2024-03-02T06:10:41;10.48;78.56
64937;SHT30;51452;47.698;19.050;2024-03-02T06:13:06;10.56;78.56
64937;SHT30;51452;47.698;19.050;2024-03-02T06:15:32;10.62;78.57
64937;SHT30;51452;47.698;19.050;2024-03-02T06:17:58;10.54;79.03
64937;SHT30;51452;47.698;19.050;2024-03-02T06:20:23;10.61;78.81
64937;SHT30;51452;47.698;19.050;2024-03-02T06:22:49;10.64;78.80
64937;SHT30;51452;47.698;19.050;2024-03-02T06:25:14;10.69;78.73
64937;SHT30;51452;47.698;19.050;2024-03-02T06:27:40;10.56;78.84
64937;SHT30;51452;47.698;19.050;2024-03-02T06:30:06;10.49;79.09
64937;SHT30;51452;47.698;19.050;2024-03-02T06:32:31;10.25;79.70
64937;SHT30;51452;47.698;19.050;2024-03-02T06:34:56;10.31;79.31
64937;SHT30;51452;47.698;19.050;2024-03-02T06:37:22;10.22;80.10
64937;SHT30;51452;47.698;19.050;2024-03-02T06:39:47;10.15;80.47
64937;SHT30;51452;47.698;19.050;2024-03-02T06:42:12;10.08;79.99
64937;SHT30;51452;47.698;19.050;2024-03-02T06:44:38;10.05;80.34
64937;SHT30;51452;47.698;19.050;2024-03-02T06:47:03;10.11;80.47
64937;SHT30;51452;47.698;19.050;2024-03-02T06:49:29;10.07;80.68
64937;SHT30;51452;47.698;19.050;2024-03-02T06:51:55;10.10;80.63
64937;SHT30;51452;47.698;19.050;2024-03-02T06:54:21;9.98;81.32
64937;SHT30;51452;47.698;19.050;2024-03-02T06:56:46;9.94;81.00
64937;SHT30;51452;47.698;19.050;2024-03-02T06:59:11;10.03;80.98
64937;SHT30;51452;47.698;19.050;2024-03-02T07:01:37;10.01;81.06
64937;SHT30;51452;47.698;19.050;2024-03-02T07:04:02;9.94;81.30
64937;SHT30;51452;47.698;19.050;2024-03-02T07:06:28;10.05;80.82
64937;SHT30;51452;47.698;19.050;2024-03-02T07:08:53;10.07;80.85
64937;SHT30;51452;47.698;19.050;2024-03-02T07:11:19;10.07;80.80
64937;SHT30;51452;47.698;19.050;2024-03-02T07:13:44;10.05;80.66
64937;SHT30;51452;47.698;19.050;2024-03-02T07:16:09;10.05;80.77
64937;SHT30;51452;47.698;19.050;2024-03-02T07:18:53;10.03;80.69
64937;SHT30;51452;47.698;19.050;2024-03-02T07:21:20;10.17;80.81
64937;SHT30;51452;47.698;19.050;2024-03-02T07:23:47;10.14;80.88
64937;SHT30;51452;47.698;19.050;2024-03-02T07:26:13;10.18;80.61
64937;SHT30;51452;47.698;19.050;2024-03-02T07:28:40;10.03;81.12
64937;SHT30;51452;47.698;19.050;2024-03-02T07:31:06;10.00;80.95
64937;SHT30;51452;47.698;19.050;2024-03-02T07:33:32;10.08;80.89
64937;SHT30;51452;47.698;19.050;2024-03-02T07:35:59;10.04;81.32
64937;SHT30;51452;47.698;19.050;2024-03-02T07:38:25;10.03;81.00
64937;SHT30;51452;47.698;19.050;2024-03-02T07:40:50;10.13;81.12
64937;SHT30;51452;47.698;19.050;2024-03-02T07:43:17;10.04;81.17
64937;SHT30;51452;47.698;19.050;2024-03-02T07:45:42;9.94;81.46
64937;SHT30;51452;47.698;19.050;2024-03-02T07:48:07;9.95;81.81
64937;SHT30;51452;47.698;19.050;2024-03-02T07:50:33;9.97;81.80
64937;SHT30;51452;47.698;19.050;2024-03-02T07:53:00;9.94;81.72
64937;SHT30;51452;47.698;19.050;2024-03-02T07:55:26;10.05;81.44
64937;SHT30;51452;47.698;19.050;2024-03-02T07:57:51;10.07;81.33
64937;SHT30;51452;47.698;19.050;2024-03-02T08:00:17;9.97;81.95
64937;SHT30;51452;47.698;19.050;2024-03-02T08:02:42;10.08;81.32
64937;SHT30;51452;47.698;19.050;2024-03-02T08:05:08;10.18;81.26
64937;SHT30;51452;47.698;19.050;2024-03-02T08:07:34;10.22;80.78
64937;SHT30;51452;47.698;19.050;2024-03-02T08:09:59;10.05;81.36
64937;SHT30;51452;47.698;19.050;2024-03-02T08:12:25;10.10;81.35
64937;SHT30;51452;47.698;19.050;2024-03-02T08:14:50;10.10;81.44
64937;SHT30;51452;47.698;19.050;2024-03-02T08:17:15;9.95;81.65
64937;SHT30;51452;47.698;19.050;2024-03-02T08:19:41;9.94;81.94
64937;SHT30;51452;47.698;19.050;2024-03-02T08:22:06;10.08;81.72
64937;SHT30;51452;47.698;19.050;2024-03-02T08:24:32;10.15;81.39
64937;SHT30;51452;47.698;19.050;2024-03-02T08:27:01;10.00;81.79
64937;SHT30;51452;47.698;19.050;2024-03-02T08:29:27;9.94;82.07
64937;SHT30;51452;47.698;19.050;2024-03-02T08:31:53;9.98;82.40
64937;SHT30;51452;47.698;19.050;2024-03-02T08:34:18;10.01;82.00
64937;SHT30;51452;47.698;19.050;2024-03-02T08:36:44;10.10;82.17
64937;SHT30;51452;47.698;19.050;2024-03-02T08:39:09;10.15;81.99
64937;SHT30;51452;47.698;19.050;2024-03-02T08:41:42;10.30;81.56
64937;SHT30;51452;47.698;19.050;2024-03-02T08:44:08;10.38;81.34
64937;SHT30;51452;47.698;19.050;2024-03-02T08:46:34;10.34;81.48
64937;SHT30;51452;47.698;19.050;2024-03-02T08:48:59;10.33;81.72
64937;SHT30;51452;47.698;19.050;2024-03-02T08:51:25;10.38;81.52
64937;SHT30;51452;47.698;19.050;2024-03-02T08:53:51;10.21;81.80
64937;SHT30;51452;47.698;19.050;2024-03-02T08:56:16;10.24;81.81
64937;SHT30;51452;47.698;19.050;2024-03-02T08:58:43;10.31;81.75
64937;SHT30;51452;47.698;19.050;2024-03-02T09:01:09;10.22;81.80
64937;SHT30;51452;47.698;19.050;2024-03-02T09:03:35;10.22;82.01
64937;SHT30;51452;47.698;19.050;2024-03-02T09:06:01;10.14;82.23
64937;SHT30;51452;47.698;19.050;2024-03-02T09:08:26;10.21;82.24
64937;SHT30;51452;47.698;19.050;2024-03-02T09:10:52;10.21;82.26
64937;SHT30;51452;47.698;19.050;2024-03-02T09:13:18;10.15;82.48
64937;SHT30;51452;47.698;19.050;2024-03-02T09:15:43;10.20;82.52
64937;SHT30;51452;47.698;19.050;2024-03-02T09:18:09;10.40;82.11
64937;SHT30;51452;47.698;19.050;2024-03-02T09:20:35;10.38;82.40
64937;SHT30;51452;47.698;19.050;2024-03-02T09:23:00;10.51;81.76
64937;SHT30;51452;47.698;19.050;2024-03-02T09:25:26;10.44;82.06
64937;SHT30;51452;47.698;19.050;2024-03-02T09:27:51;10.51;81.74
64937;SHT30;51452;47.698;19.050;2024-03-02T09:30:17;10.45;81.72
64937;SHT30;51452;47.698;19.050;2024-03-02T09:32:42;10.52;81.54
64937;SHT30;51452;47.698;19.050;2024-03-02T09:35:08;10.56;81.59
64937;SHT30;51452;47.698;19.050;2024-03-02T09:37:34;10.54;81.56
64937;SHT30;51452;47.698;19.050;2024-03-02T09:40:00;10.51;81.99
64937;SHT30;51452;47.698;19.050;2024-03-02T09:42:26;10.66;81.19
64937;SHT30;51452;47.698;19.050;2024-03-02T09:44:55;10.73;81.28
64937;SHT30;51452;47.698;19.050;2024-03-02T09:47:20;10.88;81.22
64937;SHT30;51452;47.698;19.050;2024-03-02T09:49:46;10.97;81.21
64937;SHT30;51452;47.698;19.050;2024-03-02T09:52:12;10.92;80.88
64937;SHT30;51452;47.698;19.050;2024-03-02T09:54:38;11.13;80.47
64937;SHT30;51452;47.698;19.050;2024-03-02T09:57:04;11.07;80.68
64937;SHT30;51452;47.698;19.050;2024-03-02T09:59:29;11.10;80.99
64937;SHT30;51452;47.698;19.050;2024-03-02T10:01:58;11.24;80.45
64937;SHT30;51452;47.698;19.050;2024-03-02T10:04:26;11.09;80.86
64937;SHT30;51452;47.698;19.050;2024-03-02T10:06:51;11.12;80.66
64937;SHT30;51452;47.698;19.050;2024-03-02T10:09:29;11.19;80.62
64937;SHT30;51452;47.698;19.050;2024-03-02T10:12:03;11.20;80.62
64937;SHT30;51452;47.698;19.050;2024-03-02T10:14:29;11.28;80.61
64937;SHT30;51452;47.698;19.050;2024-03-02T10:17:04;11.31;80.54
64937;SHT30;51452;47.698;19.050;2024-03-02T10:19:31;11.33;80.08
64937;SHT30;51452;47.698;19.050;2024-03-02T10:22:01;11.31;80.31
64937;SHT30;51452;47.698;19.050;2024-03-02T10:24:34;11.38;80.03
64937;SHT30;51452;47.698;19.050;2024-03-02T10:27:01;11.33;79.76
64937;SHT30;51452;47.698;19.050;2024-03-02T10:29:29;11.23;80.26
64937;SHT30;51452;47.698;19.050;2024-03-02T10:31:55;11.16;80.38
64937;SHT30;51452;47.698;19.050;2024-03-02T10:34:21;11.22;80.14
64937;SHT30;51452;47.698;19.050;2024-03-02T10:36:50;11.24;80.46
64937;SHT30;51452;47.698;19.050;2024-03-02T10:39:17;11.04;80.92
64937;SHT30;51452;47.698;19.050;2024-03-02T10:41:43;11.04;81.05
64937;SHT30;51452;47.698;19.050;2024-03-02T10:44:09;11.16;80.59
64937;SHT30;51452;47.698;19.050;2024-03-02T10:46:37;11.12;81.12
64937;SHT30;51452;47.698;19.050;2024-03-02T10:49:04;11.12;80.74
64937;SHT30;51452;47.698;19.050;2024-03-02T10:51:31;11.24;80.38
64937;SHT30;51452;47.698;19.050;2024-03-02T10:54:00;11.22;80.72
64937;SHT30;51452;47.698;19.050;2024-03-02T10:56:32;11.31;80.23
64937;SHT30;51452;47.698;19.050;2024-03-02T11:01:50;11.33;80.02
64937;SHT30;51452;47.698;19.050;2024-03-02T11:04:18;11.33;79.88
64937;SHT30;51452;47.698;19.050;2024-03-02T11:06:49;11.34;79.98
64937;SHT30;51452;47.698;19.050;2024-03-02T11:09:16;11.27;80.25
64937;SHT30;51452;47.698;19.050;2024-03-02T11:11:45;11.35;79.93
64937;SHT30;51452;47.698;19.050;2024-03-02T11:14:14;11.23;80.30
64937;SHT30;51452;47.698;19.050;2024-03-02T11:16:42;11.24;80.20
64937;SHT30;51452;47.698;19.050;2024-03-02T11:19:10;11.22;80.31
64937;SHT30;51452;47.698;19.050;2024-03-02T11:21:37;11.27;80.05
64937;SHT30;51452;47.698;19.050;2024-03-02T11:26:47;11.37;80.15
64937;SHT30;51452;47.698;19.050;2024-03-02T11:32:01;11.33;80.37
64937;SHT30;51452;47.698;19.050;2024-03-02T11:34:36;11.40;80.16
64937;SHT30;51452;47.698;19.050;2024-03-02T11:37:02;11.43;80.12
64937;SHT30;51452;47.698;19.050;2024-03-02T11:39:28;11.40;80.14
64937;SHT30;51452;47.698;19.050;2024-03-02T11:41:55;11.35;80.41
64937;SHT30;51452;47.698;19.050;2024-03-02T11:44:21;11.33;80.27
64937;SHT30;51452;47.698;19.050;2024-03-02T11:46:58;11.35;80.30
64937;SHT30;51452;47.698;19.050;2024-03-02T11:49:40;11.37;80.04
64937;SHT30;51452;47.698;19.050;2024-03-02T11:52:08;11.34;80.08
64937;SHT30;51452;47.698;19.050;2024-03-02T11:54:38;11.28;80.52
64937;SHT30;51452;47.698;19.050;2024-03-02T11:57:22;11.38;80.63
64937;SHT30;51452;47.698;19.050;2024-03-02T11:59:48;11.47;80.00
64937;SHT30;51452;47.698;19.050;2024-03-02T12:02:19;11.47;79.94
64937;SHT30;51452;47.698;19.050;2024-03-02T12:04:45;11.48;80.27
64937;SHT30;51452;47.698;19.050;2024-03-02T12:07:12;11.55;80.16
64937;SHT30;51452;47.698;19.050;2024-03-02T12:09:38;11.63;79.62
64937;SHT30;51452;47.698;19.050;2024-03-02T12:12:08;11.64;79.60
64937;SHT30;51452;47.698;19.050;2024-03-02T12:14:38;11.73;79.31
64937;SHT30;51452;47.698;19.050;2024-03-02T12:17:04;11.82;79.25
64937;SHT30;51452;47.698;19.050;2024-03-02T12:19:31;11.84;79.16
64937;SHT30;51452;47.698;19.050;2024-03-02T12:21:57;11.95;78.92
64937;SHT30;51452;47.698;19.050;2024-03-02T12:24:23;11.94;78.95
64937;SHT30;51452;47.698;19.050;2024-03-02T12:26:51;11.88;78.84
64937;SHT30;51452;47.698;19.050;2024-03-02T12:29:20;11.67;79.12
64937;SHT30;51452;47.698;19.050;2024-03-02T12:31:48;11.75;78.91
64937;SHT30;51452;47.698;19.050;2024-03-02T12:34:14;11.68;79.11
64937;SHT30;51452;47.698;19.050;2024-03-02T12:36:40;11.60;79.27
64937;SHT30;51452;47.698;19.050;2024-03-02T12:39:07;11.31;79.34
64937;SHT30;51452;47.698;19.050;2024-03-02T12:41:36;11.41;79.69
64937;SHT30;51452;47.698;19.050;2024-03-02T12:44:02;11.20;79.77
64937;SHT30;51452;47.698;19.050;2024-03-02T12:46:28;11.12;80.54
64937;SHT30;51452;47.698;19.050;2024-03-02T12:48:53;11.20;80.51
64937;SHT30;51452;47.698;19.050;2024-03-02T12:51:19;11.14;80.74
64937;SHT30;51452;47.698;19.050;2024-03-02T12:53:44;10.93;81.07
64937;SHT30;51452;47.698;19.050;2024-03-02T12:56:10;10.99;80.61
64937;SHT30;51452;47.698;19.050;2024-03-02T12:58:41;11.09;81.08
64937;SHT30;51452;47.698;19.050;2024-03-02T13:01:08;11.03;81.16
64937;SHT30;51452;47.698;19.050;2024-03-02T13:03:41;10.96;81.13
64937;SHT30;51452;47.698;19.050;2024-03-02T13:06:07;11.12;80.86
64937;SHT30;51452;47.698;19.050;2024-03-02T13:08:33;11.10;81.10
64937;SHT30;51452;47.698;19.050;2024-03-02T13:10:59;11.12;81.06
64937;SHT30;51452;47.698;19.050;2024-03-02T13:13:24;11.13;80.98
64937;SHT30;51452;47.698;19.050;2024-03-02T13:15:49;11.16;81.07
64937;SHT30;51452;47.698;19.050;2024-03-02T13:18:17;11.20;81.09
64937;SHT30;51452;47.698;19.050;2024-03-02T13:20:43;11.20;81.01
64937;SHT30;51452;47.698;19.050;2024-03-02T13:23:08;11.16;80.62
64937;SHT30;51452;47.698;19.050;2024-03-02T13:25:35;11.13;80.68
64937;SHT30;51452;47.698;19.050;2024-03-02T13:28:00;11.17;80.60
64937;SHT30;51452;47.698;19.050;2024-03-02T13:30:26;11.23;80.54
64937;SHT30;51452;47.698;19.050;2024-03-02T13:32:51;11.23;80.56
64937;SHT30;51452;47.698;19.050;2024-03-02T13:35:18;11.30;80.36
64937;SHT30;51452;47.698;19.050;2024-03-02T13:37:44;11.31;80.34
64937;SHT30;51452;47.698;19.050;2024-03-02T13:40:09;11.28;80.35
64937;SHT30;51452;47.698;19.050;2024-03-02T13:42:39;11.34;80.34
64937;SHT30;51452;47.698;19.050;2024-03-02T13:45:05;11.23;80.62
64937;SHT30;51452;47.698;19.050;2024-03-02T13:47:31;11.28;80.29
64937;SHT30;51452;47.698;19.050;2024-03-02T13:49:57;11.27;80.56
64937;SHT30;51452;47.698;19.050;2024-03-02T13:52:23;11.35;80.19
64937;SHT30;51452;47.698;19.050;2024-03-02T13:54:48;11.34;80.38
64937;SHT30;51452;47.698;19.050;2024-03-02T13:57:14;11.34;80.23
64937;SHT30;51452;47.698;19.050;2024-03-02T13:59:41;11.30;80.32
64937;SHT30;51452;47.698;19.050;2024-03-02T14:02:07;11.38;79.99
64937;SHT30;51452;47.698;19.050;2024-03-02T14:04:33;11.40;80.00
64937;SHT30;51452;47.698;19.050;2024-03-02T14:06:59;11.41;79.46
64937;SHT30;51452;47.698;19.050;2024-03-02T14:09:25;11.35;79.60
64937;SHT30;51452;47.698;19.050;2024-03-02T14:11:51;11.37;79.72
64937;SHT30;51452;47.698;19.050;2024-03-02T14:14:17;11.41;79.76
64937;SHT30;51452;47.698;19.050;2024-03-02T14:16:43;11.44;79.36
64937;SHT30;51452;47.698;19.050;2024-03-02T14:19:08;11.44;79.34
64937;SHT30;51452;47.698;19.050;2024-03-02T14:21:35;11.51;79.20
64937;SHT30;51452;47.698;19.050;2024-03-02T14:24:01;11.40;79.71
64937;SHT30;51452;47.698;19.050;2024-03-02T14:26:27;11.38;79.79
64937;SHT30;51452;47.698;19.050;2024-03-02T14:28:54;11.37;79.77
64937;SHT30;51452;47.698;19.050;2024-03-02T14:31:20;11.45;79.76
64937;SHT30;51452;47.698;19.050;2024-03-02T14:33:46;11.45;79.30
64937;SHT30;51452;47.698;19.050;2024-03-02T14:36:11;11.48;79.11
64937;SHT30;51452;47.698;19.050;2024-03-02T14:38:37;11.48;79.08
64937;SHT30;51452;47.698;19.050;2024-03-02T14:41:04;11.45;79.41
64937;SHT30;51452;47.698;19.050;2024-03-02T14:43:29;11.48;79.27
64937;SHT30;51452;47.698;19.050;2024-03-02T14:45:58;11.43;79.28
64937;SHT30;51452;47.698;19.050;2024-03-02T14:48:24;11.35;79.04
64937;SHT30;51452;47.698;19.050;2024-03-02T14:50:50;11.33;79.05
64937;SHT30;51452;47.698;19.050;2024-03-02T14:53:16;11.34;79.16
64937;SHT30;51452;47.698;19.050;2024-03-02T14:55:41;11.26;79.09
64937;SHT30;51452;47.698;19.050;2024-03-02T14:58:07;11.23;79.35
64937;SHT30;51452;47.698;19.050;2024-03-02T15:00:33;11.24;79.19
64937;SHT30;51452;47.698;19.050;2024-03-02T15:02:58;11.20;79.21
64937;SHT30;51452;47.698;19.050;2024-03-02T15:05:24;11.24;79.22
64937;SHT30;51452;47.698;19.050;2024-03-02T15:07:51;11.22;79.31
64937;SHT30;51452;47.698;19.050;2024-03-02T15:10:16;11.19;79.20
64937;SHT30;51452;47.698;19.050;2024-03-02T15:12:42;11.14;79.42
64937;SHT30;51452;47.698;19.050;2024-03-02T15:15:08;11.09;79.65
64937;SHT30;51452;47.698;19.050;2024-03-02T15:17:36;11.16;79.35
64937;SHT30;51452;47.698;19.050;2024-03-02T15:20:01;11.14;79.47
64937;SHT30;51452;47.698;19.050;2024-03-02T15:22:27;11.12;79.32